createdAt,value
2022-11-19T00:03:09.718Z,13.95
2022-11-19T00:07:11.372Z,16.42
2022-11-19T00:11:12.943Z,14.38
2022-11-19T00:15:14.629Z,17.30
2022-11-19T00:19:16.406Z,15.48
2022-11-19T00:23:18.326Z,17.85
2022-11-19T00:27:19.941Z,14.63
2022-11-19T00:31:21.940Z,15.02
2022-11-19T00:35:23.601Z,13.63
2022-11-19T00:39:25.208Z,15.15
2022-11-19T00:43:45.811Z,14.75
2022-11-19T00:47:47.862Z,15.20
2022-11-19T00:51:49.562Z,14.35
2022-11-19T00:55:51.172Z,12.43
2022-11-19T00:59:52.760Z,11.10
2022-11-19T01:03:54.471Z,12.32
2022-11-19T01:07:56.115Z,15.60
2022-11-19T01:11:57.817Z,10.43
2022-11-19T01:15:59.446Z,13.13
2022-11-19T01:20:01.127Z,13.68
2022-11-19T01:24:04.854Z,13.65
2022-11-19T01:28:06.511Z,9.68
2022-11-19T01:32:08.144Z,14.25
2022-11-19T01:36:16.089Z,11.50
2022-11-19T01:40:17.743Z,10.57
2022-11-19T01:44:56.393Z,8.13
2022-11-19T01:49:05.801Z,10.32
2022-11-19T01:53:09.373Z,11.05
2022-11-19T01:57:15.045Z,14.43
2022-11-19T02:01:18.834Z,12.07
2022-11-19T02:05:21.666Z,18.42
2022-11-19T02:09:25.428Z,9.57
2022-11-19T02:13:34.235Z,10.88
2022-11-19T02:18:00.676Z,12.50
2022-11-19T02:22:33.093Z,11.18
2022-11-19T02:26:56.081Z,9.63
2022-11-19T02:31:10.308Z,10.73
2022-11-19T02:35:21.098Z,8.27
2022-11-19T02:39:41.146Z,7.93
2022-11-19T02:43:45.490Z,11.85
2022-11-19T02:47:54.533Z,9.93
2022-11-19T02:51:56.799Z,8.88
2022-11-19T02:56:11.604Z,6.85
2022-11-19T03:00:32.136Z,9.05
2022-11-19T03:04:33.857Z,6.93
2022-11-19T03:08:35.824Z,7.65
2022-11-19T03:12:55.858Z,11.15
2022-11-19T03:17:21.413Z,8.38
2022-11-19T03:21:28.592Z,9.45
2022-11-19T03:25:42.423Z,8.60
2022-11-19T03:29:49.072Z,9.63
2022-11-19T03:33:55.326Z,5.97
2022-11-19T03:38:02.886Z,6.05
2022-11-19T03:42:09.350Z,7.78
2022-11-19T03:46:16.017Z,5.85
2022-11-19T03:50:23.906Z,7.72
2022-11-19T03:54:25.668Z,9.52
2022-11-19T03:58:27.544Z,6.47
2022-11-19T04:02:29.228Z,8.75
2022-11-19T04:06:30.916Z,7.07
2022-11-19T04:10:32.571Z,6.25
2022-11-19T04:14:34.326Z,6.03
2022-11-19T04:18:35.924Z,6.32
2022-11-19T04:22:37.540Z,6.45
2022-11-19T04:26:39.284Z,4.65
2022-11-19T04:30:40.919Z,7.03
2022-11-19T04:34:42.611Z,6.18
2022-11-19T04:38:44.305Z,6.45
2022-11-19T04:42:45.915Z,6.88
2022-11-19T04:46:47.550Z,7.55
2022-11-19T04:50:49.159Z,6.40
2022-11-19T04:54:50.757Z,8.32
2022-11-19T04:58:52.635Z,6.60
2022-11-19T05:02:54.256Z,5.15
2022-11-19T05:06:55.897Z,5.32
2022-11-19T05:10:57.695Z,5.97
2022-11-19T05:14:59.358Z,6.63
2022-11-19T05:19:00.956Z,4.65
2022-11-19T05:23:03.158Z,5.25
2022-11-19T05:27:04.935Z,4.13
2022-11-19T05:31:07.748Z,4.82
2022-11-19T05:35:09.838Z,5.50
2022-11-19T05:39:11.472Z,3.78
2022-11-19T05:43:13.345Z,5.22
2022-11-19T05:47:16.460Z,4.70
2022-11-19T05:51:18.124Z,4.50
2022-11-19T05:55:20.726Z,4.95
2022-11-19T05:59:22.502Z,4.93
2022-11-19T06:03:24.582Z,4.43
2022-11-19T06:07:26.299Z,3.97
2022-11-19T06:11:46.650Z,3.63
2022-11-19T06:15:48.556Z,4.50
2022-11-19T06:19:50.197Z,6.07
2022-11-19T06:23:51.827Z,4.90
2022-11-19T06:27:53.487Z,3.95
2022-11-19T06:31:55.311Z,7.35
2022-11-19T06:35:56.910Z,3.72
2022-11-19T06:39:58.623Z,3.10
2022-11-19T06:44:00.283Z,4.38
2022-11-19T06:48:01.880Z,3.70
2022-11-19T06:52:04.336Z,4.32
2022-11-19T06:56:07.665Z,4.25
2022-11-19T07:00:09.961Z,5.20
2022-11-19T07:04:11.883Z,3.90
2022-11-19T07:08:13.526Z,3.63
2022-11-19T07:12:15.168Z,3.35
2022-11-19T07:16:16.795Z,3.15
2022-11-19T07:20:18.528Z,3.50
2022-11-19T07:24:20.713Z,3.22
2022-11-19T07:28:22.341Z,3.53
2022-11-19T07:32:23.976Z,6.55
2022-11-19T07:36:25.634Z,2.45
2022-11-19T07:40:27.398Z,4.90
2022-11-19T07:44:29.108Z,3.08
2022-11-19T07:48:30.848Z,3.28
2022-11-19T07:52:32.508Z,2.35
2022-11-19T07:56:34.148Z,5.10
2022-11-19T08:00:35.782Z,3.65
2022-11-19T08:04:37.525Z,4.30
2022-11-19T08:08:39.189Z,3.17
2022-11-19T08:12:40.781Z,5.28
2022-11-19T08:17:01.010Z,3.05
2022-11-19T08:21:07.848Z,3.13
2022-11-19T08:25:09.657Z,3.28
2022-11-19T08:29:16.465Z,3.92
2022-11-19T08:33:18.456Z,3.30
2022-11-19T08:37:20.075Z,3.80
2022-11-19T08:41:40.660Z,5.85
2022-11-19T08:45:53.974Z,5.03
2022-11-19T08:49:55.611Z,7.00
2022-11-19T08:53:57.264Z,4.80
2022-11-19T08:58:08.501Z,7.15
2022-11-19T09:02:17.672Z,4.75
2022-11-19T09:06:19.518Z,6.00
2022-11-19T09:10:21.153Z,8.60
2022-11-19T09:14:22.949Z,4.55
2022-11-19T09:18:24.618Z,9.38
2022-11-19T09:22:26.476Z,11.32
2022-11-19T09:26:28.125Z,6.20
2022-11-19T09:30:29.747Z,5.53
2022-11-19T09:34:31.784Z,9.30
2022-11-19T09:38:35.466Z,7.78
2022-11-19T09:43:15.264Z,5.47
2022-11-19T09:47:22.977Z,5.90
2022-11-19T09:51:30.434Z,6.10
2022-11-19T09:55:41.960Z,6.50
2022-11-19T09:59:43.688Z,7.07
2022-11-19T10:03:54.724Z,4.78
2022-11-19T10:08:09.485Z,8.75
2022-11-19T10:12:19.268Z,12.50
2022-11-19T10:16:35.522Z,6.45
2022-11-19T10:20:42.974Z,6.13
2022-11-19T10:24:53.427Z,4.93
2022-11-19T10:28:57.625Z,6.38
2022-11-19T10:33:33.656Z,8.93
2022-11-19T10:37:40.727Z,7.55
2022-11-19T10:41:46.308Z,10.55
2022-11-19T10:45:47.907Z,5.50
2022-11-19T10:49:56.284Z,7.38
2022-11-19T10:53:58.218Z,6.82
2022-11-19T10:58:22.475Z,9.52
2022-11-19T11:02:39.420Z,3.85
2022-11-19T11:07:01.819Z,5.57
2022-11-19T11:11:03.653Z,4.55
2022-11-19T11:15:18.443Z,3.90
2022-11-19T11:19:22.023Z,4.10
2022-11-19T11:23:29.373Z,4.53
2022-11-19T11:27:33.587Z,8.80
2022-11-19T11:31:46.176Z,5.20
2022-11-19T11:35:48.310Z,4.57
2022-11-19T11:39:55.056Z,6.85
2022-11-19T11:48:17.655Z,3.67
2022-11-19T11:52:21.086Z,8.95
2022-11-19T11:56:22.852Z,6.82
2022-11-19T12:00:33.429Z,6.88
2022-11-19T12:04:35.984Z,5.65
2022-11-19T12:09:12.283Z,4.00
2022-11-19T12:13:47.709Z,6.53
2022-11-19T12:18:12.337Z,6.70
2022-11-19T12:22:22.915Z,4.75
2022-11-19T12:26:48.301Z,6.93
2022-11-19T12:31:20.472Z,5.32
2022-11-19T12:35:47.149Z,3.25
2022-11-19T12:44:02.850Z,6.45
2022-11-19T12:48:28.874Z,2.67
2022-11-19T12:52:58.089Z,4.80
2022-11-19T12:57:31.809Z,3.53
2022-11-19T13:01:39.307Z,2.13
2022-11-19T13:05:55.313Z,4.18
2022-11-19T13:10:12.085Z,2.35
2022-11-19T13:14:39.278Z,3.72
2022-11-19T13:18:45.450Z,4.38
2022-11-19T13:22:49.287Z,4.18
2022-11-19T13:26:51.867Z,3.80
2022-11-19T13:30:59.324Z,2.67
2022-11-19T13:35:38.761Z,3.33
2022-11-19T13:39:53.320Z,2.22
2022-11-19T13:44:15.191Z,2.33
2022-11-19T13:48:27.746Z,3.53
2022-11-19T13:52:46.645Z,2.38
2022-11-19T13:56:50.870Z,4.35
2022-11-19T14:01:08.417Z,2.63
2022-11-19T14:05:22.328Z,2.08
2022-11-19T14:10:00.691Z,2.70
2022-11-19T14:14:36.302Z,2.13
2022-11-19T14:19:04.298Z,4.40
2022-11-19T14:23:27.338Z,3.03
2022-11-19T14:27:32.935Z,2.22
2022-11-19T14:32:00.295Z,2.90
2022-11-19T14:36:12.534Z,1.95
2022-11-19T14:40:21.140Z,2.28
2022-11-19T14:48:53.509Z,1.83
2022-11-19T14:52:58.001Z,3.47
2022-11-19T14:57:14.652Z,2.65
2022-11-19T15:01:21.026Z,2.58
2022-11-19T15:05:30.409Z,5.78
2022-11-19T15:09:51.526Z,2.05
2022-11-19T15:14:05.473Z,4.22
2022-11-19T15:18:51.614Z,2.80
2022-11-19T15:23:32.522Z,2.85
2022-11-19T15:27:48.943Z,2.58
2022-11-19T15:36:29.758Z,3.65
2022-11-19T15:40:34.069Z,2.15
2022-11-19T15:45:08.094Z,3.30
2022-11-19T15:49:28.312Z,2.15
2022-11-19T15:53:29.962Z,1.42
2022-11-19T15:57:31.758Z,2.85
2022-11-19T16:01:34.396Z,1.60
2022-11-19T16:05:36.302Z,1.77
2022-11-19T16:09:38.678Z,3.40
2022-11-19T16:13:59.083Z,1.58
2022-11-19T16:18:00.794Z,3.55
2022-11-19T16:22:04.357Z,1.42
2022-11-19T16:26:06.462Z,2.72
2022-11-19T16:30:17.413Z,2.10
2022-11-19T16:34:31.237Z,1.33
2022-11-19T16:38:32.903Z,1.38
2022-11-19T16:42:34.869Z,1.48
2022-11-19T16:46:36.865Z,1.48
2022-11-19T16:50:43.798Z,3.00
2022-11-19T16:54:50.234Z,3.15
2022-11-19T16:58:58.555Z,2.42
2022-11-19T17:03:02.143Z,0.80
2022-11-19T17:07:03.815Z,2.33
2022-11-19T17:11:35.908Z,1.85
2022-11-19T17:15:48.964Z,1.65
2022-11-19T17:19:50.765Z,1.48
2022-11-19T17:23:52.861Z,3.08
2022-11-19T17:27:57.332Z,2.40
2022-11-19T17:31:59.269Z,1.20
2022-11-19T17:36:00.931Z,1.38
2022-11-19T17:40:02.599Z,3.03
2022-11-19T17:44:23.538Z,1.23
2022-11-19T17:48:26.570Z,1.15
2022-11-19T17:52:30.214Z,1.58
2022-11-19T17:56:31.937Z,1.10
2022-11-19T18:00:34.704Z,1.23
2022-11-19T18:04:36.306Z,1.10
2022-11-19T18:08:40.160Z,4.60
2022-11-19T18:12:41.757Z,1.45
2022-11-19T18:16:43.599Z,1.17
2022-11-19T18:20:45.211Z,1.33
2022-11-19T18:24:48.840Z,1.65
2022-11-19T18:28:50.756Z,1.90
2022-11-19T18:32:52.593Z,1.88
2022-11-19T18:36:54.313Z,3.75
2022-11-19T18:40:55.885Z,1.67
2022-11-19T18:44:57.616Z,2.53
2022-11-19T18:48:59.728Z,1.25
2022-11-19T18:53:01.298Z,1.77
2022-11-19T18:57:03.735Z,2.53
2022-11-19T19:01:06.279Z,2.45
2022-11-19T19:05:08.171Z,2.70
2022-11-19T19:09:11.111Z,2.53
2022-11-19T19:13:12.918Z,3.03
2022-11-19T19:17:15.658Z,5.22
2022-11-19T19:21:19.992Z,3.05
2022-11-19T19:25:21.610Z,2.25
2022-11-19T19:29:23.471Z,3.47
2022-11-19T19:33:25.452Z,3.25
2022-11-19T19:37:27.183Z,3.42
2022-11-19T19:41:29.110Z,3.35
2022-11-19T19:45:34.513Z,3.67
2022-11-19T19:49:38.987Z,2.85
2022-11-19T19:53:41.922Z,3.67
2022-11-19T19:57:43.686Z,3.83
2022-11-19T20:01:50.732Z,3.88
2022-11-19T20:05:52.399Z,3.35
2022-11-19T20:09:53.982Z,2.67
2022-11-19T20:13:56.881Z,4.45
2022-11-19T20:17:58.535Z,4.40
2022-11-19T20:22:00.183Z,4.55
2022-11-19T20:26:04.729Z,3.95
2022-11-19T20:30:07.016Z,4.00
2022-11-19T20:34:10.114Z,4.75
2022-11-19T20:38:12.219Z,7.50
2022-11-19T20:42:32.490Z,2.95
2022-11-19T20:46:34.125Z,4.75
2022-11-19T20:50:35.876Z,3.45
2022-11-19T20:54:37.587Z,4.57
2022-11-19T20:58:39.199Z,4.03
2022-11-19T21:02:40.838Z,5.53
2022-11-19T21:06:42.782Z,3.75
2022-11-19T21:10:44.405Z,2.47
2022-11-19T21:14:46.396Z,3.10
2022-11-19T21:18:48.888Z,3.17
2022-11-19T21:22:50.698Z,4.78
2022-11-19T21:26:52.353Z,4.90
2022-11-19T21:30:54.101Z,3.30
2022-11-19T21:34:55.710Z,3.78
2022-11-19T21:38:57.384Z,2.35
2022-11-19T21:42:59.022Z,3.40
2022-11-19T21:47:00.748Z,2.78
2022-11-19T21:51:07.398Z,3.10
2022-11-19T21:55:09.241Z,2.85
2022-11-19T21:59:11.076Z,3.92
2022-11-19T22:03:12.699Z,3.63
2022-11-19T22:07:14.396Z,3.15
2022-11-19T22:11:32.023Z,2.17
2022-11-19T22:15:33.992Z,3.95
2022-11-19T22:19:35.986Z,2.85
2022-11-19T22:23:37.798Z,3.83
2022-11-19T22:27:41.419Z,3.28
2022-11-19T22:31:43.020Z,5.45
2022-11-19T22:35:44.661Z,3.08
2022-11-19T22:39:46.281Z,2.25
2022-11-19T22:43:48.718Z,3.28
2022-11-19T22:47:50.330Z,4.40
2022-11-19T22:51:52.199Z,2.58
2022-11-19T22:55:53.858Z,2.88
2022-11-19T22:59:55.452Z,4.80
2022-11-19T23:03:59.736Z,5.05
2022-11-19T23:08:05.218Z,2.75
2022-11-19T23:12:25.556Z,2.22
2022-11-19T23:16:27.720Z,4.43
2022-11-19T23:20:31.517Z,2.88
2022-11-19T23:24:33.401Z,5.45
2022-11-19T23:28:36.347Z,2.70
2022-11-19T23:32:38.008Z,2.40
2022-11-19T23:36:41.262Z,4.80
2022-11-19T23:40:42.921Z,4.70
2022-11-19T23:44:44.593Z,2.70
2022-11-19T23:48:47.849Z,3.45
2022-11-19T23:52:50.565Z,4.38
2022-11-19T23:56:52.312Z,2.30
